KMLU/MLU METAR and TAF weather

Enter ICAO airport designator
Station Type Date Time Source
KMLU METAR 2021/08/02 02:53 UTC NOAA

KMLU 020253Z 00000KT 8SM CLR 27/26 A3000 RMK AO2 SLP158 T02670256 53015 $


Station Type Date Time Source
KMLU Decoded METAR 2021/08/02 02:53 UTC NOAA

MONROE REGIONAL AIRPORT, LA, United States (KMLU) 32-31N 092-02W 29M
Aug 01, 2021 - 10:53 PM EDT / 2021.08.02 0253 UTC
Wind: Calm:0
Visibility: 8 mile(s):0
Sky conditions: clear
Temperature: 80.1 F (26.7 C)
Dew Point: 78.1 F (25.6 C)
Relative Humidity: 93%
Pressure (altimeter): 30 in. Hg (1015 hPa)
Pressure tendency: 0.04 inches (1.5 hPa) higher than three hours ago
ob: KMLU 020253Z 00000KT 8SM CLR 27/26 A3000 RMK AO2 SLP158 T02670256 53015
cycle: 3

Station Type Date Time Source
KMLU TAF 2021/08/01 23:58 UTC NOAA

TAF
AMD KMLU 012257Z 0123/0218 14005KT 6SM -SHRA VCTS SCT030CB BKN050 OVC100
TEMPO 0123/0124 4SM TSRA BKN030CB OVC050
FM020000 VRB03KT P6SM VCTS BKN040CB
FM020500 02003KT 5SM -TSRA BR OVC015CB
FM021300 05003KT P6SM OVC015

Example: see airport list